This is the latest recevied weather packets stored in our database for station/object KE1THD. If no packets are shown the sender has not sent any weather packets the latest 10 day(s).
| Time | Temp. | Humidity | Pressure | Rain* | Wind** | Luminosity | Snow |
|---|---|---|---|---|---|---|---|
| 1778109537 | 12.22° C | 36% | 1015.6 hPa | 0 mm | - | 74 W/m² | - |
| 1778109235 | 12.22° C | 36% | 1015.6 hPa | 0 mm | - | 173 W/m² | - |
| 1778108932 | 12.22° C | 36% | 1015.8 hPa | 0 mm | - | 190 W/m² | - |
| 1778108628 | 11.67° C | 36% | 1015.6 hPa | 0 mm | - | 212 W/m² | - |
| 1778108324 | 11.67° C | 37% | 1015.6 hPa | 0 mm | - | 186 W/m² | - |
| 1778108022 | 11.67° C | 37% | 1015.9 hPa | 0 mm | - | 114 W/m² | - |
| 1778107718 | 12.22° C | 37% | 1015.7 hPa | 0 mm | - | 115 W/m² | - |
| 1778107416 | 12.22° C | 37% | 1015.8 hPa | 0 mm | - | 116 W/m² | - |
| 1778107112 | 11.67° C | 37% | 1015.6 hPa | 0 mm | - | 334 W/m² | - |
| 1778106801 | 12.22° C | 35% | 1015.6 hPa | 0 mm | - | 101 W/m² | - |
| 1778106500 | 12.78° C | 35% | 1015.8 hPa | 0 mm | - | 136 W/m² | - |
| 1778106195 | 12.22° C | 35% | 1015.8 hPa | 0 mm | - | 359 W/m² | - |
| 1778105893 | 12.22° C | 36% | 1015.9 hPa | 0 mm | - | 403 W/m² | - |
| 1778105590 | 11.67° C | 37% | 1015.8 hPa | 0 mm | - | 198 W/m² | - |
| 1778105288 | 12.22° C | 36% | 1015.9 hPa | 0 mm | - | 108 W/m² | - |
| 1778104983 | 12.78° C | 36% | 1015.7 hPa | 0 mm | - | 417 W/m² | - |
| 1778104679 | 12.78° C | 37% | 1015.8 hPa | 0 mm | - | 181 W/m² | - |
| 1778104375 | 12.22° C | 38% | 1015.6 hPa | 0 mm | - | 456 W/m² | - |
| 1778104071 | 11.67° C | 37% | 1015.7 hPa | 0 mm | - | 189 W/m² | - |
| 1778103768 | 12.22° C | 36% | 1015.8 hPa | 0 mm | - | 164 W/m² | - |
| 1778103467 | 12.22° C | 37% | 1015.6 hPa | 0 mm | - | 583 W/m² | - |
| 1778103163 | 11.67° C | 39% | 1015.8 hPa | 0 mm | - | 219 W/m² | - |
| 1778102861 | 11.67° C | 38% | 1016 hPa | 0 mm | - | 165 W/m² | - |
| 1778102556 | 11.67° C | 39% | 1016 hPa | 0 mm | - | 223 W/m² | - |
| 1778102246 | 11.67° C | 38% | 1016.1 hPa | 0 mm | - | 295 W/m² | - |
* Rain latest hour (hover to see other rain measurements)
** Current wind speed in m/s (hover to see current wind gust speed)